createdAt,value
2018-11-21T00:00:31.217Z,40.00
2018-11-21T00:02:33.238Z,39.10
2018-11-21T00:04:34.977Z,37.50
2018-11-21T00:06:36.722Z,38.60
2018-11-21T00:08:38.584Z,38.90
2018-11-21T00:10:40.631Z,40.17
2018-11-21T00:12:52.973Z,36.60
2018-11-21T00:14:54.730Z,35.20
2018-11-21T00:16:56.444Z,38.78
2018-11-21T00:19:00.733Z,37.70
2018-11-21T00:20:59.905Z,38.10
2018-11-21T00:23:01.646Z,36.63
2018-11-21T00:25:03.770Z,38.97
2018-11-21T00:27:05.523Z,40.33
2018-11-21T00:29:07.578Z,37.40
2018-11-21T00:31:09.604Z,37.47
2018-11-21T00:33:11.355Z,38.63
2018-11-21T00:35:13.086Z,36.77
2018-11-21T00:37:14.822Z,37.80
2018-11-21T00:39:16.892Z,34.80
2018-11-21T00:41:18.884Z,36.40
2018-11-21T00:43:20.662Z,35.00
2018-11-21T00:45:22.407Z,32.65
2018-11-21T00:47:24.150Z,38.13
2018-11-21T00:49:25.892Z,30.03
2018-11-21T00:51:27.647Z,37.73
2018-11-21T00:53:29.741Z,35.80
2018-11-21T00:55:31.478Z,35.83
2018-11-21T00:57:33.528Z,35.90
2018-11-21T00:59:35.289Z,30.53
2018-11-21T01:01:37.016Z,35.73
2018-11-21T01:03:38.789Z,31.63
2018-11-21T01:05:40.527Z,34.67
2018-11-21T01:07:42.314Z,35.95
2018-11-21T01:09:44.040Z,34.55
2018-11-21T01:11:45.777Z,35.40
2018-11-21T01:13:47.541Z,34.63
2018-11-21T01:15:49.285Z,33.58
2018-11-21T01:17:51.062Z,32.88
2018-11-21T01:19:52.801Z,33.75
2018-11-21T01:21:54.850Z,33.17
2018-11-21T01:23:56.894Z,31.90
2018-11-21T01:25:58.950Z,34.23
2018-11-21T01:28:00.690Z,32.25
2018-11-21T01:30:02.438Z,33.98
2018-11-21T01:32:04.276Z,32.75
2018-11-21T01:34:06.017Z,36.07
2018-11-21T01:36:08.030Z,34.50
2018-11-21T01:38:09.757Z,27.07
2018-11-21T01:40:11.789Z,32.83
2018-11-21T01:42:13.524Z,33.20
2018-11-21T01:44:15.574Z,32.85
2018-11-21T01:46:17.609Z,27.67
2018-11-21T01:48:19.674Z,34.45
2018-11-21T01:50:21.422Z,31.83
2018-11-21T01:52:23.166Z,31.07
2018-11-21T01:54:25.286Z,30.23
2018-11-21T01:56:27.162Z,32.30
2018-11-21T01:58:29.197Z,31.60
2018-11-21T02:00:30.945Z,26.90
2018-11-21T02:02:33.513Z,35.30
2018-11-21T02:04:35.642Z,31.97
2018-11-21T02:06:37.404Z,32.60
2018-11-21T02:08:39.141Z,32.83
2018-11-21T02:10:40.987Z,28.42
2018-11-21T02:12:43.034Z,34.27
2018-11-21T02:14:45.042Z,31.90
2018-11-21T02:16:46.825Z,30.10
2018-11-21T02:18:48.593Z,30.57
2018-11-21T02:20:50.338Z,30.83
2018-11-21T02:22:52.486Z,29.90
2018-11-21T02:24:54.222Z,30.93
2018-11-21T02:26:55.961Z,31.87
2018-11-21T02:28:57.750Z,32.25
2018-11-21T02:30:59.522Z,31.00
2018-11-21T02:33:01.538Z,30.70
2018-11-21T02:35:04.162Z,29.20
2018-11-21T02:37:05.901Z,30.90
2018-11-21T02:39:08.128Z,28.30
2018-11-21T02:41:10.215Z,30.02
2018-11-21T02:43:12.063Z,30.75
2018-11-21T02:45:13.774Z,30.10
2018-11-21T02:47:15.846Z,28.43
2018-11-21T02:49:17.843Z,30.60
2018-11-21T02:51:19.590Z,30.25
2018-11-21T02:53:21.322Z,31.30
2018-11-21T02:55:23.071Z,31.60
2018-11-21T02:57:26.443Z,30.95
2018-11-21T02:59:28.513Z,28.27
2018-11-21T03:01:30.257Z,29.25
2018-11-21T03:03:31.993Z,28.90
2018-11-21T03:05:34.012Z,28.83
2018-11-21T03:07:36.332Z,27.63
2018-11-21T03:09:38.110Z,29.33
2018-11-21T03:11:39.853Z,30.57
2018-11-21T03:13:41.593Z,31.05
2018-11-21T03:15:43.329Z,29.80
2018-11-21T03:17:45.422Z,30.73
2018-11-21T03:19:47.525Z,29.65
2018-11-21T03:21:49.268Z,27.85
2018-11-21T03:23:51.010Z,29.40
2018-11-21T03:25:53.009Z,28.50
2018-11-21T03:27:55.056Z,27.03
2018-11-21T03:29:56.784Z,31.90
2018-11-21T03:31:58.537Z,27.98
2018-11-21T03:34:00.609Z,29.27
2018-11-21T03:36:02.343Z,29.60
2018-11-21T03:38:04.202Z,28.00
2018-11-21T03:40:08.034Z,31.12
2018-11-21T03:42:09.798Z,30.43
2018-11-21T03:44:11.900Z,30.00
2018-11-21T03:46:13.684Z,30.97
2018-11-21T03:48:15.432Z,31.57
2018-11-21T03:50:17.179Z,30.25
2018-11-21T03:52:18.929Z,30.57
2018-11-21T03:54:20.918Z,30.75
2018-11-21T03:56:23.288Z,25.80
2018-11-21T03:58:25.349Z,28.00
2018-11-21T04:00:27.084Z,28.17
2018-11-21T04:02:28.831Z,29.67
2018-11-21T04:04:30.561Z,30.52
2018-11-21T04:06:32.577Z,29.72
2018-11-21T04:08:34.667Z,28.10
2018-11-21T04:10:36.406Z,31.02
2018-11-21T04:12:38.314Z,30.47
2018-11-21T04:14:40.107Z,30.90
2018-11-21T04:16:41.891Z,30.65
2018-11-21T04:18:43.658Z,29.90
2018-11-21T04:20:45.430Z,29.80
2018-11-21T04:22:47.488Z,31.05
2018-11-21T04:24:49.478Z,27.40
2018-11-21T04:26:51.225Z,28.07
2018-11-21T04:28:53.305Z,27.65
2018-11-21T04:30:55.102Z,28.50
2018-11-21T04:32:56.851Z,29.87
2018-11-21T04:34:58.858Z,28.67
2018-11-21T04:37:00.928Z,29.17
2018-11-21T04:39:05.501Z,27.90
2018-11-21T04:41:07.238Z,31.27
2018-11-21T04:43:08.973Z,27.03
2018-11-21T04:45:10.732Z,29.30
2018-11-21T04:47:12.737Z,30.53
2018-11-21T04:49:14.477Z,30.87
2018-11-21T04:51:16.259Z,26.80
2018-11-21T04:53:18.234Z,33.05
2018-11-21T04:55:20.015Z,33.08
2018-11-21T04:57:21.750Z,30.40
2018-11-21T04:59:23.809Z,29.30
2018-11-21T05:01:25.901Z,32.80
2018-11-21T05:03:27.685Z,30.17
2018-11-21T05:05:29.417Z,29.37
2018-11-21T05:07:31.190Z,31.35
2018-11-21T05:09:32.934Z,25.52
2018-11-21T05:11:34.673Z,30.65
2018-11-21T05:13:36.417Z,30.40
2018-11-21T05:15:38.918Z,29.30
2018-11-21T05:17:40.680Z,28.25
2018-11-21T05:19:42.447Z,32.40
2018-11-21T05:21:44.509Z,32.95
2018-11-21T05:23:46.256Z,31.65
2018-11-21T05:25:47.990Z,30.75
2018-11-21T05:27:49.997Z,33.45
2018-11-21T05:29:51.768Z,30.70
2018-11-21T05:31:53.511Z,31.15
2018-11-21T05:33:55.577Z,28.67
2018-11-21T05:35:57.595Z,31.05
2018-11-21T05:37:59.329Z,31.93
2018-11-21T05:40:01.107Z,33.18
2018-11-21T05:42:03.193Z,32.17
2018-11-21T05:44:04.939Z,35.60
2018-11-21T05:46:06.682Z,32.80
2018-11-21T05:48:08.679Z,34.05
2018-11-21T05:50:11.725Z,34.70
2018-11-21T05:52:13.458Z,31.20
2018-11-21T05:54:15.201Z,33.40
2018-11-21T05:56:16.942Z,35.35
2018-11-21T05:58:18.668Z,34.15
2018-11-21T06:00:20.421Z,34.48
2018-11-21T06:02:22.478Z,33.50
2018-11-21T06:04:24.230Z,31.48
2018-11-21T06:06:25.967Z,34.48
2018-11-21T06:08:27.709Z,35.10
2018-11-21T06:10:29.454Z,33.53
2018-11-21T06:12:31.196Z,33.35
2018-11-21T06:14:33.271Z,35.85
2018-11-21T06:16:35.231Z,34.18
2018-11-21T06:18:36.967Z,34.10
2018-11-21T06:20:38.761Z,33.80
2018-11-21T06:22:40.805Z,32.73
2018-11-21T06:24:42.541Z,35.30
2018-11-21T06:26:56.540Z,33.58
2018-11-21T06:28:58.274Z,34.80
2018-11-21T06:31:00.024Z,34.40
2018-11-21T06:33:01.761Z,36.05
2018-11-21T06:35:05.094Z,37.17
2018-11-21T06:37:06.837Z,35.90
2018-11-21T06:39:08.578Z,36.05
2018-11-21T06:41:10.314Z,33.60
2018-11-21T06:43:12.045Z,33.00
2018-11-21T06:45:13.789Z,38.10
2018-11-21T06:47:15.533Z,35.20
2018-11-21T06:49:17.273Z,35.70
2018-11-21T06:51:18.992Z,34.77
2018-11-21T06:53:20.734Z,36.77
2018-11-21T06:55:22.484Z,33.87
2018-11-21T06:57:24.229Z,34.40
2018-11-21T06:59:25.967Z,36.10
2018-11-21T07:01:28.025Z,34.85
2018-11-21T07:03:29.787Z,35.17
2018-11-21T07:05:31.538Z,36.23
2018-11-21T07:07:34.145Z,34.55
2018-11-21T07:09:35.886Z,32.95
2018-11-21T07:11:37.632Z,32.75
2018-11-21T07:13:39.602Z,33.80
2018-11-21T07:15:41.336Z,27.77
2018-11-21T07:17:43.109Z,35.35
2018-11-21T07:19:45.142Z,34.83
2018-11-21T07:21:47.178Z,34.95
2018-11-21T07:23:48.910Z,35.27
2018-11-21T07:25:50.659Z,39.55
2018-11-21T07:27:52.388Z,35.07
2018-11-21T07:29:54.153Z,35.40
2018-11-21T07:31:55.903Z,31.25
2018-11-21T07:33:57.946Z,37.50
2018-11-21T07:36:00.042Z,34.40
2018-11-21T07:38:01.823Z,34.80
2018-11-21T07:40:05.741Z,35.50
2018-11-21T07:42:07.501Z,33.80
2018-11-21T07:44:09.233Z,34.88
2018-11-21T07:46:10.965Z,34.57
2018-11-21T07:48:12.711Z,35.20
2018-11-21T07:50:16.301Z,34.40
2018-11-21T07:52:18.604Z,32.50
2018-11-21T07:54:20.354Z,34.90
2018-11-21T07:57:16.677Z,36.07
2018-11-21T07:59:18.923Z,34.90
2018-11-21T08:01:24.258Z,37.67
2018-11-21T08:03:27.961Z,33.53
2018-11-21T08:05:31.563Z,34.63
2018-11-21T08:07:41.502Z,37.30
2018-11-21T08:09:57.083Z,35.40
2018-11-21T08:12:16.034Z,35.53
2018-11-21T08:14:36.232Z,37.47
2018-11-21T08:16:58.251Z,36.93
2018-11-21T08:19:15.607Z,35.70
2018-11-21T08:21:44.975Z,36.00
2018-11-21T08:24:15.526Z,35.80
2018-11-21T08:26:35.920Z,34.83
2018-11-21T08:28:37.673Z,36.00
2018-11-21T08:30:39.404Z,37.83
2018-11-21T08:32:41.216Z,38.03
2018-11-21T08:34:42.953Z,35.20
2018-11-21T08:36:44.730Z,38.90
2018-11-21T08:38:46.769Z,37.57
2018-11-21T08:40:48.770Z,38.70
2018-11-21T08:42:50.533Z,38.37
2018-11-21T08:44:52.274Z,40.50
2018-11-21T08:46:54.040Z,36.90
2018-11-21T08:48:55.785Z,36.57
2018-11-21T08:50:57.564Z,38.43
2018-11-21T08:52:59.777Z,38.37
2018-11-21T08:55:01.685Z,39.40
2018-11-21T08:57:03.719Z,38.60
2018-11-21T08:59:05.481Z,39.20
2018-11-21T09:01:07.526Z,40.40
2018-11-21T09:03:09.371Z,35.47
2018-11-21T09:05:11.582Z,39.40
2018-11-21T09:07:13.356Z,38.90
2018-11-21T09:09:15.459Z,38.07
2018-11-21T09:11:17.230Z,37.27
2018-11-21T09:13:18.966Z,36.50
2018-11-21T09:15:20.714Z,37.90
2018-11-21T09:17:22.451Z,37.90
2018-11-21T09:19:24.193Z,39.03
2018-11-21T09:21:26.591Z,40.90
2018-11-21T09:23:28.325Z,38.70
2018-11-21T09:25:30.067Z,38.73
2018-11-21T09:27:32.608Z,40.60
2018-11-21T09:29:34.658Z,40.70
2018-11-21T09:31:36.423Z,39.93
2018-11-21T09:33:38.441Z,41.27
2018-11-21T09:35:40.186Z,39.40
2018-11-21T09:37:42.210Z,40.00
2018-11-21T09:39:43.953Z,40.93
2018-11-21T09:41:45.946Z,40.17
2018-11-21T09:43:47.710Z,41.57
2018-11-21T09:45:49.748Z,40.60
2018-11-21T09:47:51.766Z,40.93
2018-11-21T09:49:53.517Z,40.17
2018-11-21T09:51:55.254Z,41.60
2018-11-21T09:53:57.052Z,42.43
2018-11-21T09:55:58.796Z,41.27
2018-11-21T09:58:00.533Z,38.80
2018-11-21T10:00:22.803Z,41.77
2018-11-21T10:03:01.427Z,41.07
2018-11-21T10:05:03.459Z,39.60
2018-11-21T10:07:05.214Z,29.40
2018-11-21T10:09:18.885Z,41.00
2018-11-21T10:11:20.922Z,39.73
2018-11-21T10:13:22.649Z,40.10
2018-11-21T10:15:24.393Z,39.73
2018-11-21T10:17:26.170Z,43.40
2018-11-21T10:19:27.950Z,41.57
2018-11-21T10:21:31.437Z,46.80
2018-11-21T10:23:33.594Z,48.13
2018-11-21T10:25:35.331Z,42.20
2018-11-21T10:27:37.102Z,45.43
2018-11-21T10:29:38.829Z,46.70
2018-11-21T10:31:40.574Z,46.00
2018-11-21T10:33:42.341Z,43.90
2018-11-21T10:35:44.075Z,42.97
2018-11-21T10:37:45.818Z,41.60
2018-11-21T10:39:47.558Z,33.83
2018-11-21T10:41:49.297Z,44.27
2018-11-21T10:44:25.732Z,49.20
2018-11-21T10:46:29.007Z,44.73
2018-11-21T10:48:32.275Z,43.43
2018-11-21T10:50:36.175Z,42.50
2018-11-21T10:52:39.810Z,41.37
2018-11-21T10:54:43.071Z,39.13
2018-11-21T10:56:46.751Z,40.00
2018-11-21T10:58:50.287Z,42.90
2018-11-21T11:01:11.900Z,40.97
2018-11-21T11:03:22.811Z,40.80
2018-11-21T11:05:39.550Z,40.40
2018-11-21T11:08:09.063Z,39.80
2018-11-21T11:10:30.020Z,43.10
2018-11-21T11:12:44.890Z,40.10
2018-11-21T11:15:16.581Z,34.30
2018-11-21T11:17:47.911Z,42.30
2018-11-21T11:20:19.947Z,39.83
2018-11-21T11:22:40.352Z,40.93
2018-11-21T11:25:21.124Z,43.03
2018-11-21T11:27:46.808Z,41.30
2018-11-21T11:30:08.444Z,39.10
2018-11-21T11:32:29.455Z,42.37
2018-11-21T11:34:45.160Z,43.17
2018-11-21T11:37:10.667Z,41.23
2018-11-21T11:39:31.780Z,42.67
2018-11-21T11:41:53.191Z,40.83
2018-11-21T11:44:15.921Z,41.60
2018-11-21T11:46:31.488Z,39.07
2018-11-21T11:48:52.799Z,41.40
2018-11-21T11:51:13.607Z,39.30
2018-11-21T11:53:35.041Z,41.30
2018-11-21T11:55:50.591Z,41.07
2018-11-21T11:58:09.578Z,40.20
2018-11-21T12:00:30.891Z,45.60
2018-11-21T12:03:02.661Z,44.30
2018-11-21T12:05:25.320Z,41.83
2018-11-21T12:07:46.095Z,40.50
2018-11-21T12:10:06.156Z,42.53
2018-11-21T12:12:40.135Z,41.70
2018-11-21T12:15:00.803Z,41.33
2018-11-21T12:17:22.140Z,42.00
2018-11-21T12:19:34.271Z,42.93
2018-11-21T12:21:53.243Z,37.33
2018-11-21T12:24:25.127Z,39.23
2018-11-21T12:26:46.351Z,41.17
2018-11-21T12:29:10.888Z,40.77
2018-11-21T12:31:32.313Z,38.70
2018-11-21T12:33:57.636Z,39.50
2018-11-21T12:36:31.808Z,39.47
2018-11-21T12:38:44.957Z,40.50
2018-11-21T12:41:10.455Z,41.23
2018-11-21T12:43:48.260Z,42.17
2018-11-21T12:46:13.475Z,36.77
2018-11-21T12:48:34.480Z,43.23
2018-11-21T12:50:55.747Z,39.00
2018-11-21T12:53:24.299Z,38.40
2018-11-21T12:55:48.026Z,39.80
2018-11-21T12:58:01.139Z,40.77
2018-11-21T13:00:15.388Z,38.70
2018-11-21T13:02:31.840Z,39.20
2018-11-21T13:04:47.468Z,40.23
2018-11-21T13:07:08.984Z,40.17
2018-11-21T13:09:30.268Z,40.20
2018-11-21T13:11:58.932Z,42.97
2018-11-21T13:14:33.419Z,43.20
2018-11-21T13:16:56.459Z,40.87
2018-11-21T13:19:23.807Z,42.07
2018-11-21T13:21:46.773Z,40.43
2018-11-21T13:24:05.347Z,42.07
2018-11-21T13:26:30.983Z,36.37
2018-11-21T13:28:52.196Z,39.57
2018-11-21T13:31:23.713Z,40.33
2018-11-21T13:33:45.723Z,41.67
2018-11-21T13:36:07.024Z,47.70
2018-11-21T13:38:27.759Z,41.77
2018-11-21T13:40:51.183Z,43.37
2018-11-21T13:43:28.949Z,42.97
2018-11-21T13:45:47.668Z,39.80
2018-11-21T13:47:58.512Z,40.97
2018-11-21T13:50:39.336Z,45.40
2018-11-21T13:52:55.268Z,41.93
2018-11-21T13:54:59.974Z,42.80
2018-11-21T13:57:03.255Z,39.23
2018-11-21T13:59:06.523Z,43.47
2018-11-21T14:01:09.828Z,46.80
2018-11-21T14:03:13.148Z,41.63
2018-11-21T14:05:16.412Z,42.80
2018-11-21T14:07:20.483Z,42.57
2018-11-21T14:09:24.139Z,44.40
2018-11-21T14:11:27.408Z,45.90
2018-11-21T14:13:30.984Z,42.23
2018-11-21T14:15:34.284Z,46.17
2018-11-21T14:17:37.551Z,45.20
2018-11-21T14:19:40.827Z,46.77
2018-11-21T14:21:44.091Z,42.70
2018-11-21T14:23:47.367Z,47.77
2018-11-21T14:25:50.900Z,44.13
2018-11-21T14:27:54.496Z,46.20
2018-11-21T14:29:57.772Z,46.90
2018-11-21T14:32:01.072Z,46.50
2018-11-21T14:34:04.701Z,43.70
2018-11-21T14:36:07.973Z,42.90
2018-11-21T14:38:11.250Z,44.83
2018-11-21T14:40:16.567Z,42.70
2018-11-21T14:42:19.838Z,43.67
2018-11-21T14:44:23.107Z,46.20
2018-11-21T14:46:26.383Z,50.20
2018-11-21T14:48:29.679Z,41.17
2018-11-21T14:50:39.039Z,47.30
2018-11-21T14:52:37.963Z,42.90
2018-11-21T14:54:41.216Z,40.57
2018-11-21T14:56:44.480Z,42.30
2018-11-21T14:58:48.104Z,41.30
2018-11-21T15:00:51.404Z,44.90
2018-11-21T15:02:54.666Z,41.80
2018-11-21T15:04:57.991Z,43.43
2018-11-21T15:07:01.482Z,43.33
2018-11-21T15:09:08.475Z,40.97
2018-11-21T15:11:11.751Z,42.87
2018-11-21T15:13:15.020Z,42.90
2018-11-21T15:15:19.671Z,43.27
2018-11-21T15:17:22.936Z,40.93
2018-11-21T15:19:26.212Z,43.43
2018-11-21T15:21:29.495Z,44.47
2018-11-21T15:23:32.920Z,43.90
2018-11-21T15:25:36.195Z,43.93
2018-11-21T15:27:39.654Z,46.40
2018-11-21T15:29:42.916Z,40.63
2018-11-21T15:31:46.179Z,42.10
2018-11-21T15:33:49.787Z,47.87
2018-11-21T15:35:53.099Z,48.30
2018-11-21T15:37:56.372Z,54.00
2018-11-21T15:39:59.887Z,39.37
2018-11-21T15:42:03.392Z,42.10
2018-11-21T15:44:06.659Z,44.47
2018-11-21T15:46:10.084Z,41.53
2018-11-21T15:48:13.503Z,41.17
2018-11-21T15:50:17.331Z,41.00
2018-11-21T15:52:20.868Z,39.07
2018-11-21T15:54:24.143Z,40.17
2018-11-21T15:56:27.560Z,40.90
2018-11-21T15:58:30.832Z,40.07
2018-11-21T16:00:35.012Z,41.60
2018-11-21T16:02:38.560Z,41.00
2018-11-21T16:04:47.970Z,43.08
2018-11-21T16:06:45.548Z,42.80
2018-11-21T16:08:48.816Z,44.93
2018-11-21T16:10:52.131Z,40.87
2018-11-21T16:12:55.396Z,40.90
2018-11-21T16:14:58.663Z,41.70
2018-11-21T16:17:01.977Z,39.80
2018-11-21T16:19:05.479Z,39.10
2018-11-21T16:21:08.751Z,40.10
2018-11-21T16:23:12.023Z,41.90
2018-11-21T16:25:16.839Z,47.00
2018-11-21T16:27:20.143Z,47.00
2018-11-21T16:29:23.707Z,40.50
2018-11-21T16:31:26.976Z,38.70
2018-11-21T16:33:30.283Z,37.30
2018-11-21T16:35:33.563Z,38.17
2018-11-21T16:37:37.209Z,40.70
2018-11-21T16:39:40.776Z,40.20
2018-11-21T16:41:44.123Z,40.87
2018-11-21T16:43:47.414Z,38.73
2018-11-21T16:45:52.512Z,36.43
2018-11-21T16:47:55.787Z,38.83
2018-11-21T16:49:59.060Z,38.10
2018-11-21T16:52:02.349Z,39.37
2018-11-21T16:54:05.732Z,39.73
2018-11-21T16:56:09.044Z,37.63
2018-11-21T16:58:12.315Z,38.50
2018-11-21T17:00:17.723Z,38.30
2018-11-21T17:02:20.991Z,37.93
2018-11-21T17:04:24.260Z,39.30
2018-11-21T17:06:27.799Z,38.30
2018-11-21T17:08:31.068Z,32.73
2018-11-21T17:10:34.338Z,38.97
2018-11-21T17:12:37.773Z,39.70
2018-11-21T17:14:41.339Z,37.77
2018-11-21T17:16:45.309Z,37.70
2018-11-21T17:18:48.691Z,41.40
2018-11-21T17:20:52.418Z,37.30
2018-11-21T17:22:56.792Z,36.90
2018-11-21T17:25:00.072Z,39.00
2018-11-21T17:27:03.355Z,42.97
2018-11-21T17:29:08.811Z,40.83
2018-11-21T17:31:10.479Z,40.03
2018-11-21T17:33:13.771Z,37.70
2018-11-21T17:35:18.228Z,40.10
2018-11-21T17:37:21.495Z,40.40
2018-11-21T17:39:24.772Z,36.13
2018-11-21T17:41:28.043Z,38.90
2018-11-21T17:43:31.336Z,39.10
2018-11-21T17:45:34.604Z,40.07
2018-11-21T17:47:37.996Z,37.80
2018-11-21T17:49:41.267Z,38.90
2018-11-21T17:51:44.536Z,38.70
2018-11-21T17:53:48.124Z,39.37
2018-11-21T17:55:51.387Z,38.67
2018-11-21T17:57:54.653Z,40.90
2018-11-21T17:59:57.943Z,40.07
2018-11-21T18:02:01.312Z,41.00
2018-11-21T18:04:04.720Z,40.87
2018-11-21T18:06:08.240Z,39.70
2018-11-21T18:08:11.507Z,39.37
2018-11-21T18:10:16.420Z,40.52
2018-11-21T18:12:20.040Z,39.73
2018-11-21T18:14:23.403Z,39.95
2018-11-21T18:16:26.947Z,38.95
2018-11-21T18:18:30.224Z,40.17
2018-11-21T18:20:33.512Z,41.68
2018-11-21T18:22:37.071Z,43.07
2018-11-21T18:24:40.352Z,39.93
2018-11-21T18:26:43.621Z,41.27
2018-11-21T18:28:46.895Z,40.30
2018-11-21T18:30:50.387Z,41.87
2018-11-21T18:32:53.659Z,44.60
2018-11-21T18:34:56.951Z,42.77
2018-11-21T18:37:00.224Z,42.37
2018-11-21T18:39:04.756Z,42.27
2018-11-21T18:41:08.047Z,45.10
2018-11-21T18:43:11.328Z,44.33
2018-11-21T18:45:26.691Z,41.23
2018-11-21T18:47:29.967Z,40.58
2018-11-21T18:49:33.548Z,44.65
2018-11-21T18:51:36.811Z,41.68
2018-11-21T18:53:40.079Z,42.33
2018-11-21T18:55:49.275Z,41.03
2018-11-21T18:58:18.799Z,42.10
2018-11-21T19:00:24.772Z,39.98
2018-11-21T19:02:28.047Z,38.60
2018-11-21T19:04:31.317Z,42.07
2018-11-21T19:06:34.865Z,41.83
2018-11-21T19:08:38.300Z,43.17
2018-11-21T19:10:41.580Z,44.35
2018-11-21T19:12:45.084Z,42.30
2018-11-21T19:14:49.639Z,44.55
2018-11-21T19:16:52.911Z,39.60
2018-11-21T19:18:56.183Z,38.10
2018-11-21T19:20:59.500Z,42.63
2018-11-21T19:23:02.812Z,41.77
2018-11-21T19:25:07.288Z,41.18
2018-11-21T19:27:12.691Z,43.25
2018-11-21T19:29:15.971Z,41.88
2018-11-21T19:31:19.251Z,43.00
2018-11-21T19:33:22.915Z,45.80
2018-11-21T19:35:26.539Z,42.25
2018-11-21T19:37:29.819Z,44.90
2018-11-21T19:39:33.096Z,44.20
2018-11-21T19:41:36.415Z,44.73
2018-11-21T19:43:39.760Z,43.42
2018-11-21T19:45:43.034Z,45.20
2018-11-21T19:47:46.556Z,44.73
2018-11-21T19:49:49.856Z,44.53
2018-11-21T19:51:53.144Z,44.90
2018-11-21T19:53:56.419Z,36.77
2018-11-21T19:55:59.703Z,46.53
2018-11-21T19:58:03.124Z,50.30
2018-11-21T20:00:10.003Z,44.70
2018-11-21T20:02:13.642Z,44.77
2018-11-21T20:04:17.215Z,45.85
2018-11-21T20:06:20.850Z,48.00
2018-11-21T20:08:24.463Z,45.43
2018-11-21T20:10:28.016Z,54.30
2018-11-21T20:12:31.308Z,48.15
2018-11-21T20:14:34.932Z,44.53
2018-11-21T20:16:38.523Z,45.90
2018-11-21T20:18:41.819Z,43.78
2018-11-21T20:20:45.100Z,47.73
2018-11-21T20:22:49.039Z,43.58
2018-11-21T20:24:52.436Z,49.30
